sensor_id;sensor_type;location;lat;lon;timestamp;temperature;humidity
16995;DHT22;8614;48.522;9.206;2023-03-29T02:02:50;6.90;99.90
16995;DHT22;8614;48.522;9.206;2023-03-29T02:05:19;6.90;99.90
16995;DHT22;8614;48.522;9.206;2023-03-29T02:07:47;6.90;99.90
16995;DHT22;8614;48.522;9.206;2023-03-29T02:10:16;7.00;99.90
16995;DHT22;8614;48.522;9.206;2023-03-29T02:12:44;6.90;99.90
16995;DHT22;8614;48.522;9.206;2023-03-29T02:15:13;6.90;99.90
16995;DHT22;8614;48.522;9.206;2023-03-29T02:17:40;7.00;99.90
16995;DHT22;8614;48.522;9.206;2023-03-29T02:20:13;6.90;99.90
16995;DHT22;8614;48.522;9.206;2023-03-29T02:22:50;7.00;99.90
16995;DHT22;8614;48.522;9.206;2023-03-29T02:25:20;7.00;99.90
16995;DHT22;8614;48.522;9.206;2023-03-29T02:27:49;7.00;99.90
16995;DHT22;8614;48.522;9.206;2023-03-29T02:30:18;7.00;99.90
16995;DHT22;8614;48.522;9.206;2023-03-29T02:32:48;7.00;99.90
16995;DHT22;8614;48.522;9.206;2023-03-29T02:35:24;7.00;99.90
16995;DHT22;8614;48.522;9.206;2023-03-29T02:37:55;7.00;99.90
16995;DHT22;8614;48.522;9.206;2023-03-29T02:40:25;7.10;99.90
16995;DHT22;8614;48.522;9.206;2023-03-29T02:42:53;7.10;99.90
16995;DHT22;8614;48.522;9.206;2023-03-29T02:45:22;7.10;99.90
16995;DHT22;8614;48.522;9.206;2023-03-29T02:47:52;7.20;99.90
16995;DHT22;8614;48.522;9.206;2023-03-29T02:50:24;7.20;99.90
16995;DHT22;8614;48.522;9.206;2023-03-29T02:52:56;7.20;99.90
16995;DHT22;8614;48.522;9.206;2023-03-29T02:55:25;7.30;99.90
16995;DHT22;8614;48.522;9.206;2023-03-29T02:57:56;7.30;99.90
16995;DHT22;8614;48.522;9.206;2023-03-29T03:00:23;7.30;99.90
16995;DHT22;8614;48.522;9.206;2023-03-29T03:02:50;7.40;99.90
16995;DHT22;8614;48.522;9.206;2023-03-29T03:05:17;7.40;99.90
16995;DHT22;8614;48.522;9.206;2023-03-29T03:07:45;7.40;99.90
16995;DHT22;8614;48.522;9.206;2023-03-29T03:10:13;7.50;99.90
16995;DHT22;8614;48.522;9.206;2023-03-29T03:12:40;7.50;99.90
16995;DHT22;8614;48.522;9.206;2023-03-29T03:15:08;7.50;99.90
16995;DHT22;8614;48.522;9.206;2023-03-29T03:17:37;7.50;99.90
16995;DHT22;8614;48.522;9.206;2023-03-29T03:20:07;7.60;99.90
16995;DHT22;8614;48.522;9.206;2023-03-29T03:22:39;7.60;99.90
16995;DHT22;8614;48.522;9.206;2023-03-29T03:25:07;7.60;99.90
16995;DHT22;8614;48.522;9.206;2023-03-29T03:27:36;7.60;99.90
16995;DHT22;8614;48.522;9.206;2023-03-29T03:30:05;7.60;99.90
16995;DHT22;8614;48.522;9.206;2023-03-29T03:32:52;7.60;99.90
16995;DHT22;8614;48.522;9.206;2023-03-29T03:35:54;7.60;99.90
16995;DHT22;8614;48.522;9.206;2023-03-29T03:38:27;7.60;99.90
16995;DHT22;8614;48.522;9.206;2023-03-29T03:40:58;7.70;99.90
16995;DHT22;8614;48.522;9.206;2023-03-29T03:43:27;7.60;99.90
16995;DHT22;8614;48.522;9.206;2023-03-29T03:45:55;7.60;99.90
16995;DHT22;8614;48.522;9.206;2023-03-29T03:48:24;7.60;99.90
16995;DHT22;8614;48.522;9.206;2023-03-29T03:51:09;7.60;99.90
16995;DHT22;8614;48.522;9.206;2023-03-29T03:53:35;7.60;99.90
16995;DHT22;8614;48.522;9.206;2023-03-29T03:56:13;7.60;99.90
16995;DHT22;8614;48.522;9.206;2023-03-29T03:59:01;7.60;99.90
16995;DHT22;8614;48.522;9.206;2023-03-29T04:01:32;7.60;99.90
16995;DHT22;8614;48.522;9.206;2023-03-29T04:04:10;7.60;99.90
16995;DHT22;8614;48.522;9.206;2023-03-29T04:06:40;7.60;99.90
16995;DHT22;8614;48.522;9.206;2023-03-29T04:09:27;7.60;99.90
16995;DHT22;8614;48.522;9.206;2023-03-29T04:12:10;7.60;99.90
16995;DHT22;8614;48.522;9.206;2023-03-29T04:14:39;7.70;99.90
16995;DHT22;8614;48.522;9.206;2023-03-29T04:17:09;7.60;99.90
16995;DHT22;8614;48.522;9.206;2023-03-29T04:20:06;7.70;99.90
16995;DHT22;8614;48.522;9.206;2023-03-29T04:22:38;7.70;99.90
16995;DHT22;8614;48.522;9.206;2023-03-29T04:25:07;7.70;99.90
16995;DHT22;8614;48.522;9.206;2023-03-29T04:27:58;7.70;99.90
16995;DHT22;8614;48.522;9.206;2023-03-29T04:30:39;7.70;99.90
16995;DHT22;8614;48.522;9.206;2023-03-29T04:33:12;7.70;99.90
16995;DHT22;8614;48.522;9.206;2023-03-29T04:35:42;7.70;99.90
16995;DHT22;8614;48.522;9.206;2023-03-29T04:38:13;7.70;99.90
16995;DHT22;8614;48.522;9.206;2023-03-29T04:40:42;7.60;99.90
16995;DHT22;8614;48.522;9.206;2023-03-29T04:43:31;7.60;99.90
16995;DHT22;8614;48.522;9.206;2023-03-29T04:46:08;7.60;99.90
16995;DHT22;8614;48.522;9.206;2023-03-29T04:49:00;7.50;99.90
16995;DHT22;8614;48.522;9.206;2023-03-29T04:51:37;7.50;99.90
16995;DHT22;8614;48.522;9.206;2023-03-29T04:54:04;7.50;99.90
16995;DHT22;8614;48.522;9.206;2023-03-29T04:56:46;7.50;99.90
16995;DHT22;8614;48.522;9.206;2023-03-29T04:59:33;7.50;99.90
16995;DHT22;8614;48.522;9.206;2023-03-29T05:02:03;7.50;99.90
16995;DHT22;8614;48.522;9.206;2023-03-29T05:04:30;7.50;99.90
16995;DHT22;8614;48.522;9.206;2023-03-29T05:07:13;7.50;99.90
16995;DHT22;8614;48.522;9.206;2023-03-29T05:09:42;7.50;99.90
16995;DHT22;8614;48.522;9.206;2023-03-29T05:12:10;7.50;99.90
16995;DHT22;8614;48.522;9.206;2023-03-29T05:14:50;7.60;99.90
16995;DHT22;8614;48.522;9.206;2023-03-29T05:17:18;7.60;99.90
16995;DHT22;8614;48.522;9.206;2023-03-29T05:19:46;7.60;99.90
16995;DHT22;8614;48.522;9.206;2023-03-29T05:22:13;7.60;99.90
16995;DHT22;8614;48.522;9.206;2023-03-29T05:24:41;7.60;99.90
16995;DHT22;8614;48.522;9.206;2023-03-29T05:27:16;7.60;99.90
16995;DHT22;8614;48.522;9.206;2023-03-29T05:29:53;7.70;99.90
16995;DHT22;8614;48.522;9.206;2023-03-29T05:32:26;7.70;99.90
16995;DHT22;8614;48.522;9.206;2023-03-29T05:34:53;7.80;99.90
16995;DHT22;8614;48.522;9.206;2023-03-29T05:37:20;7.80;99.90
16995;DHT22;8614;48.522;9.206;2023-03-29T05:39:52;7.90;99.90
16995;DHT22;8614;48.522;9.206;2023-03-29T05:42:26;8.00;99.90
16995;DHT22;8614;48.522;9.206;2023-03-29T05:45:07;8.00;99.90
16995;DHT22;8614;48.522;9.206;2023-03-29T05:47:35;8.00;99.90
16995;DHT22;8614;48.522;9.206;2023-03-29T05:50:02;8.10;99.90
16995;DHT22;8614;48.522;9.206;2023-03-29T05:52:29;8.20;99.90
16995;DHT22;8614;48.522;9.206;2023-03-29T05:54:56;8.20;99.90
16995;DHT22;8614;48.522;9.206;2023-03-29T05:57:24;8.30;99.90
16995;DHT22;8614;48.522;9.206;2023-03-29T05:59:51;8.30;99.90
16995;DHT22;8614;48.522;9.206;2023-03-29T06:02:20;8.40;99.90
16995;DHT22;8614;48.522;9.206;2023-03-29T06:04:51;8.50;99.90
16995;DHT22;8614;48.522;9.206;2023-03-29T06:07:21;8.50;99.90
16995;DHT22;8614;48.522;9.206;2023-03-29T06:10:27;8.60;99.90
16995;DHT22;8614;48.522;9.206;2023-03-29T06:13:07;8.70;99.90
16995;DHT22;8614;48.522;9.206;2023-03-29T06:15:34;8.80;99.90
16995;DHT22;8614;48.522;9.206;2023-03-29T06:18:06;8.90;99.90
16995;DHT22;8614;48.522;9.206;2023-03-29T06:20:35;8.90;99.90
16995;DHT22;8614;48.522;9.206;2023-03-29T06:23:07;9.10;99.90
16995;DHT22;8614;48.522;9.206;2023-03-29T06:25:34;9.20;99.90
16995;DHT22;8614;48.522;9.206;2023-03-29T06:28:01;9.40;99.90
16995;DHT22;8614;48.522;9.206;2023-03-29T06:30:28;9.50;99.90
16995;DHT22;8614;48.522;9.206;2023-03-29T06:32:57;9.70;99.90
16995;DHT22;8614;48.522;9.206;2023-03-29T06:35:46;10.00;99.90
16995;DHT22;8614;48.522;9.206;2023-03-29T06:38:17;10.10;99.90
16995;DHT22;8614;48.522;9.206;2023-03-29T06:40:59;10.30;99.90
16995;DHT22;8614;48.522;9.206;2023-03-29T06:43:33;10.40;99.90
16995;DHT22;8614;48.522;9.206;2023-03-29T06:46:05;10.40;99.90
16995;DHT22;8614;48.522;9.206;2023-03-29T06:48:48;10.40;99.90
16995;DHT22;8614;48.522;9.206;2023-03-29T06:51:17;10.30;99.90
16995;DHT22;8614;48.522;9.206;2023-03-29T06:53:44;10.30;99.90
16995;DHT22;8614;48.522;9.206;2023-03-29T06:56:12;10.20;99.90
16995;DHT22;8614;48.522;9.206;2023-03-29T06:58:40;10.20;99.90
16995;DHT22;8614;48.522;9.206;2023-03-29T07:01:32;10.20;99.90
16995;DHT22;8614;48.522;9.206;2023-03-29T07:04:09;10.20;99.90
16995;DHT22;8614;48.522;9.206;2023-03-29T07:07:00;10.20;99.90
16995;DHT22;8614;48.522;9.206;2023-03-29T07:09:31;10.30;99.90
16995;DHT22;8614;48.522;9.206;2023-03-29T07:12:29;10.30;99.90
16995;DHT22;8614;48.522;9.206;2023-03-29T07:14:59;10.40;99.90
16995;DHT22;8614;48.522;9.206;2023-03-29T07:17:46;10.50;99.90
16995;DHT22;8614;48.522;9.206;2023-03-29T07:20:13;10.70;99.90
16995;DHT22;8614;48.522;9.206;2023-03-29T07:22:47;10.80;99.90
16995;DHT22;8614;48.522;9.206;2023-03-29T07:25:16;11.00;99.90
16995;DHT22;8614;48.522;9.206;2023-03-29T07:27:44;11.10;99.90
16995;DHT22;8614;48.522;9.206;2023-03-29T07:30:14;11.20;99.90
16995;DHT22;8614;48.522;9.206;2023-03-29T07:32:42;11.20;99.90
16995;DHT22;8614;48.522;9.206;2023-03-29T07:35:35;11.40;99.90
16995;DHT22;8614;48.522;9.206;2023-03-29T07:38:04;11.60;99.90
16995;DHT22;8614;48.522;9.206;2023-03-29T07:40:33;11.70;99.90
16995;DHT22;8614;48.522;9.206;2023-03-29T07:43:32;11.80;99.90
16995;DHT22;8614;48.522;9.206;2023-03-29T07:46:00;11.90;99.90
16995;DHT22;8614;48.522;9.206;2023-03-29T07:48:29;11.90;99.90
16995;DHT22;8614;48.522;9.206;2023-03-29T07:51:01;11.90;99.90
16995;DHT22;8614;48.522;9.206;2023-03-29T07:53:34;11.70;99.90
16995;DHT22;8614;48.522;9.206;2023-03-29T07:56:04;11.70;99.90
16995;DHT22;8614;48.522;9.206;2023-03-29T07:59:01;11.60;99.90
16995;DHT22;8614;48.522;9.206;2023-03-29T08:01:28;11.60;99.90
16995;DHT22;8614;48.522;9.206;2023-03-29T08:04:11;11.60;99.90
16995;DHT22;8614;48.522;9.206;2023-03-29T08:06:57;11.70;99.90
16995;DHT22;8614;48.522;9.206;2023-03-29T08:09:35;11.70;99.90
16995;DHT22;8614;48.522;9.206;2023-03-29T08:12:03;11.70;99.90
16995;DHT22;8614;48.522;9.206;2023-03-29T08:14:34;11.60;99.90
16995;DHT22;8614;48.522;9.206;2023-03-29T08:17:09;11.60;99.90
16995;DHT22;8614;48.522;9.206;2023-03-29T08:19:42;11.60;99.90
16995;DHT22;8614;48.522;9.206;2023-03-29T08:22:09;11.50;99.90
16995;DHT22;8614;48.522;9.206;2023-03-29T08:25:06;11.50;99.90
16995;DHT22;8614;48.522;9.206;2023-03-29T08:27:40;11.50;99.90
16995;DHT22;8614;48.522;9.206;2023-03-29T08:30:09;11.50;99.90
16995;DHT22;8614;48.522;9.206;2023-03-29T08:32:39;11.50;99.90
16995;DHT22;8614;48.522;9.206;2023-03-29T08:35:08;11.50;99.90
16995;DHT22;8614;48.522;9.206;2023-03-29T08:37:55;11.50;99.90
16995;DHT22;8614;48.522;9.206;2023-03-29T08:40:26;11.50;99.90
16995;DHT22;8614;48.522;9.206;2023-03-29T08:43:35;11.60;99.90
16995;DHT22;8614;48.522;9.206;2023-03-29T08:46:25;11.70;99.90
16995;DHT22;8614;48.522;9.206;2023-03-29T08:48:58;11.80;99.90
16995;DHT22;8614;48.522;9.206;2023-03-29T08:51:30;11.80;99.90
16995;DHT22;8614;48.522;9.206;2023-03-29T08:54:03;11.80;99.90
16995;DHT22;8614;48.522;9.206;2023-03-29T08:57:03;11.80;99.90
16995;DHT22;8614;48.522;9.206;2023-03-29T08:59:36;11.80;99.90
16995;DHT22;8614;48.522;9.206;2023-03-29T09:02:13;11.80;99.90
16995;DHT22;8614;48.522;9.206;2023-03-29T09:04:41;11.80;99.90
16995;DHT22;8614;48.522;9.206;2023-03-29T09:07:21;11.80;99.90
16995;DHT22;8614;48.522;9.206;2023-03-29T09:09:47;12.00;99.90
16995;DHT22;8614;48.522;9.206;2023-03-29T09:12:39;12.10;99.90
16995;DHT22;8614;48.522;9.206;2023-03-29T09:15:12;12.20;99.90
16995;DHT22;8614;48.522;9.206;2023-03-29T09:17:54;12.20;99.90
16995;DHT22;8614;48.522;9.206;2023-03-29T09:20:31;12.30;99.90
16995;DHT22;8614;48.522;9.206;2023-03-29T09:23:07;12.30;99.90
16995;DHT22;8614;48.522;9.206;2023-03-29T09:26:01;12.40;99.90
16995;DHT22;8614;48.522;9.206;2023-03-29T09:28:58;12.40;99.90
16995;DHT22;8614;48.522;9.206;2023-03-29T09:31:29;12.60;99.90
16995;DHT22;8614;48.522;9.206;2023-03-29T09:34:00;12.90;99.90
16995;DHT22;8614;48.522;9.206;2023-03-29T09:36:48;13.10;99.90
16995;DHT22;8614;48.522;9.206;2023-03-29T09:39:17;13.40;99.90
16995;DHT22;8614;48.522;9.206;2023-03-29T09:41:52;13.60;99.90
16995;DHT22;8614;48.522;9.206;2023-03-29T09:44:23;13.70;99.90
16995;DHT22;8614;48.522;9.206;2023-03-29T09:46:53;13.70;99.90
16995;DHT22;8614;48.522;9.206;2023-03-29T09:49:27;13.80;99.90
16995;DHT22;8614;48.522;9.206;2023-03-29T09:52:00;13.80;99.90
16995;DHT22;8614;48.522;9.206;2023-03-29T09:54:28;14.00;99.90
16995;DHT22;8614;48.522;9.206;2023-03-29T09:57:16;14.10;99.90
16995;DHT22;8614;48.522;9.206;2023-03-29T09:59:47;14.30;99.90
16995;DHT22;8614;48.522;9.206;2023-03-29T10:02:18;14.50;99.90
16995;DHT22;8614;48.522;9.206;2023-03-29T10:04:51;14.60;99.90
16995;DHT22;8614;48.522;9.206;2023-03-29T10:07:20;14.70;99.90
16995;DHT22;8614;48.522;9.206;2023-03-29T10:09:54;14.90;99.90
16995;DHT22;8614;48.522;9.206;2023-03-29T10:12:22;15.10;99.90
16995;DHT22;8614;48.522;9.206;2023-03-29T10:14:52;15.40;99.90
16995;DHT22;8614;48.522;9.206;2023-03-29T10:17:21;15.60;99.90
16995;DHT22;8614;48.522;9.206;2023-03-29T10:19:49;15.80;99.90
16995;DHT22;8614;48.522;9.206;2023-03-29T10:22:18;16.10;99.90
16995;DHT22;8614;48.522;9.206;2023-03-29T10:24:48;16.50;99.90
16995;DHT22;8614;48.522;9.206;2023-03-29T10:27:18;16.80;99.90
16995;DHT22;8614;48.522;9.206;2023-03-29T10:29:46;17.00;99.90
16995;DHT22;8614;48.522;9.206;2023-03-29T10:32:15;17.10;99.90
16995;DHT22;8614;48.522;9.206;2023-03-29T10:34:44;17.40;99.90
16995;DHT22;8614;48.522;9.206;2023-03-29T10:37:12;17.60;99.90
16995;DHT22;8614;48.522;9.206;2023-03-29T10:39:41;17.60;99.90
16995;DHT22;8614;48.522;9.206;2023-03-29T10:42:12;17.90;99.90
16995;DHT22;8614;48.522;9.206;2023-03-29T10:44:39;18.10;99.90
16995;DHT22;8614;48.522;9.206;2023-03-29T10:47:11;18.10;99.90
16995;DHT22;8614;48.522;9.206;2023-03-29T10:49:42;18.20;99.90
16995;DHT22;8614;48.522;9.206;2023-03-29T10:52:12;18.10;99.90
16995;DHT22;8614;48.522;9.206;2023-03-29T10:54:40;18.10;99.90
16995;DHT22;8614;48.522;9.206;2023-03-29T10:57:11;18.20;99.90
16995;DHT22;8614;48.522;9.206;2023-03-29T10:59:45;18.40;99.90
16995;DHT22;8614;48.522;9.206;2023-03-29T11:02:46;18.60;99.90
16995;DHT22;8614;48.522;9.206;2023-03-29T11:05:26;18.70;99.90
16995;DHT22;8614;48.522;9.206;2023-03-29T11:08:16;18.60;99.90
16995;DHT22;8614;48.522;9.206;2023-03-29T11:10:50;18.40;99.90
16995;DHT22;8614;48.522;9.206;2023-03-29T11:13:24;18.40;99.90
16995;DHT22;8614;48.522;9.206;2023-03-29T11:16:03;18.40;99.90
16995;DHT22;8614;48.522;9.206;2023-03-29T11:18:49;18.50;99.90
16995;DHT22;8614;48.522;9.206;2023-03-29T11:21:27;18.50;99.90
16995;DHT22;8614;48.522;9.206;2023-03-29T11:27:07;18.50;99.90
16995;DHT22;8614;48.522;9.206;2023-03-29T11:29:45;18.40;99.90
16995;DHT22;8614;48.522;9.206;2023-03-29T11:32:17;18.30;99.90
16995;DHT22;8614;48.522;9.206;2023-03-29T11:34:54;18.10;99.90
16995;DHT22;8614;48.522;9.206;2023-03-29T11:37:34;18.10;99.90
16995;DHT22;8614;48.522;9.206;2023-03-29T11:40:15;18.00;99.90
16995;DHT22;8614;48.522;9.206;2023-03-29T11:42:48;17.80;99.90
16995;DHT22;8614;48.522;9.206;2023-03-29T11:45:25;17.70;99.90
16995;DHT22;8614;48.522;9.206;2023-03-29T11:47:53;17.80;99.90
16995;DHT22;8614;48.522;9.206;2023-03-29T11:50:24;17.80;99.90
16995;DHT22;8614;48.522;9.206;2023-03-29T11:52:55;17.70;99.90
16995;DHT22;8614;48.522;9.206;2023-03-29T11:55:26;17.60;99.90
16995;DHT22;8614;48.522;9.206;2023-03-29T11:57:55;17.50;99.90
16995;DHT22;8614;48.522;9.206;2023-03-29T12:00:27;17.40;99.90
16995;DHT22;8614;48.522;9.206;2023-03-29T12:02:58;17.40;99.90
16995;DHT22;8614;48.522;9.206;2023-03-29T12:05:31;17.60;99.90
16995;DHT22;8614;48.522;9.206;2023-03-29T12:08:02;17.60;99.90
16995;DHT22;8614;48.522;9.206;2023-03-29T12:10:34;17.70;99.90
16995;DHT22;8614;48.522;9.206;2023-03-29T12:13:06;17.70;99.90
16995;DHT22;8614;48.522;9.206;2023-03-29T12:15:41;17.70;99.90
16995;DHT22;8614;48.522;9.206;2023-03-29T12:18:16;17.60;99.90
16995;DHT22;8614;48.522;9.206;2023-03-29T12:20:46;17.60;99.90
16995;DHT22;8614;48.522;9.206;2023-03-29T12:23:15;17.50;99.90
16995;DHT22;8614;48.522;9.206;2023-03-29T12:25:48;17.40;99.90
16995;DHT22;8614;48.522;9.206;2023-03-29T12:28:26;17.30;99.90
16995;DHT22;8614;48.522;9.206;2023-03-29T12:31:05;17.30;99.90
16995;DHT22;8614;48.522;9.206;2023-03-29T12:34:02;17.20;99.90
16995;DHT22;8614;48.522;9.206;2023-03-29T12:37:09;17.10;99.90
16995;DHT22;8614;48.522;9.206;2023-03-29T12:39:46;17.20;99.90
16995;DHT22;8614;48.522;9.206;2023-03-29T12:42:32;17.20;99.90
16995;DHT22;8614;48.522;9.206;2023-03-29T12:45:30;17.30;99.90
16995;DHT22;8614;48.522;9.206;2023-03-29T12:47:59;17.30;99.90
16995;DHT22;8614;48.522;9.206;2023-03-29T12:50:30;17.30;99.90
16995;DHT22;8614;48.522;9.206;2023-03-29T12:53:04;17.20;99.90
16995;DHT22;8614;48.522;9.206;2023-03-29T12:55:47;17.20;99.90
16995;DHT22;8614;48.522;9.206;2023-03-29T12:58:47;17.30;99.90
16995;DHT22;8614;48.522;9.206;2023-03-29T13:01:24;17.60;99.90
16995;DHT22;8614;48.522;9.206;2023-03-29T13:03:56;18.00;99.90
16995;DHT22;8614;48.522;9.206;2023-03-29T13:06:29;18.30;99.90
16995;DHT22;8614;48.522;9.206;2023-03-29T13:08:59;18.60;99.90
16995;DHT22;8614;48.522;9.206;2023-03-29T13:11:31;18.80;99.90
16995;DHT22;8614;48.522;9.206;2023-03-29T13:14:00;18.80;99.90
16995;DHT22;8614;48.522;9.206;2023-03-29T13:16:31;18.70;99.90
16995;DHT22;8614;48.522;9.206;2023-03-29T13:19:10;18.50;99.90
16995;DHT22;8614;48.522;9.206;2023-03-29T13:21:49;18.30;99.90
16995;DHT22;8614;48.522;9.206;2023-03-29T13:24:34;18.10;99.90
16995;DHT22;8614;48.522;9.206;2023-03-29T13:27:08;18.00;99.90
16995;DHT22;8614;48.522;9.206;2023-03-29T13:29:54;17.90;99.90
16995;DHT22;8614;48.522;9.206;2023-03-29T13:32:35;17.70;99.90
16995;DHT22;8614;48.522;9.206;2023-03-29T13:35:14;17.40;99.90
16995;DHT22;8614;48.522;9.206;2023-03-29T13:37:51;17.10;99.90
16995;DHT22;8614;48.522;9.206;2023-03-29T13:40:32;16.90;99.90
16995;DHT22;8614;48.522;9.206;2023-03-29T13:43:17;16.60;99.90
16995;DHT22;8614;48.522;9.206;2023-03-29T13:46:02;16.40;99.90
16995;DHT22;8614;48.522;9.206;2023-03-29T13:48:30;16.40;99.90
16995;DHT22;8614;48.522;9.206;2023-03-29T13:50:59;16.30;99.90
16995;DHT22;8614;48.522;9.206;2023-03-29T13:53:31;16.30;99.90
16995;DHT22;8614;48.522;9.206;2023-03-29T13:56:00;16.20;99.90
16995;DHT22;8614;48.522;9.206;2023-03-29T13:58:35;16.20;99.90
16995;DHT22;8614;48.522;9.206;2023-03-29T14:01:08;16.30;99.90
16995;DHT22;8614;48.522;9.206;2023-03-29T14:03:41;16.30;99.90
16995;DHT22;8614;48.522;9.206;2023-03-29T14:06:12;16.20;99.90
16995;DHT22;8614;48.522;9.206;2023-03-29T14:08:41;16.10;99.90
16995;DHT22;8614;48.522;9.206;2023-03-29T14:11:19;16.20;99.90
16995;DHT22;8614;48.522;9.206;2023-03-29T14:13:51;16.20;99.90
16995;DHT22;8614;48.522;9.206;2023-03-29T14:16:19;16.20;99.90
16995;DHT22;8614;48.522;9.206;2023-03-29T14:18:47;16.20;99.90
16995;DHT22;8614;48.522;9.206;2023-03-29T14:21:16;16.10;99.90
16995;DHT22;8614;48.522;9.206;2023-03-29T14:23:46;16.20;99.90
16995;DHT22;8614;48.522;9.206;2023-03-29T14:26:16;16.40;99.90
16995;DHT22;8614;48.522;9.206;2023-03-29T14:28:44;16.40;99.90
16995;DHT22;8614;48.522;9.206;2023-03-29T14:31:18;16.50;99.90
16995;DHT22;8614;48.522;9.206;2023-03-29T14:33:46;16.50;99.90
16995;DHT22;8614;48.522;9.206;2023-03-29T14:36:16;16.40;99.90
16995;DHT22;8614;48.522;9.206;2023-03-29T14:38:47;16.50;99.90
16995;DHT22;8614;48.522;9.206;2023-03-29T14:41:14;16.50;99.90
16995;DHT22;8614;48.522;9.206;2023-03-29T14:43:42;16.60;99.90
16995;DHT22;8614;48.522;9.206;2023-03-29T14:46:10;16.70;99.90
16995;DHT22;8614;48.522;9.206;2023-03-29T14:48:39;16.80;99.90
16995;DHT22;8614;48.522;9.206;2023-03-29T14:51:08;16.90;99.90
16995;DHT22;8614;48.522;9.206;2023-03-29T14:53:35;16.90;99.90
16995;DHT22;8614;48.522;9.206;2023-03-29T14:56:04;16.90;99.90
16995;DHT22;8614;48.522;9.206;2023-03-29T14:58:33;17.00;99.90
16995;DHT22;8614;48.522;9.206;2023-03-29T15:01:03;17.00;99.90
16995;DHT22;8614;48.522;9.206;2023-03-29T15:03:42;17.10;99.90
16995;DHT22;8614;48.522;9.206;2023-03-29T15:06:11;17.20;99.90
16995;DHT22;8614;48.522;9.206;2023-03-29T15:08:40;17.10;99.90
16995;DHT22;8614;48.522;9.206;2023-03-29T15:11:13;17.10;99.90
16995;DHT22;8614;48.522;9.206;2023-03-29T15:13:42;17.10;99.90
16995;DHT22;8614;48.522;9.206;2023-03-29T15:16:12;17.10;99.90
16995;DHT22;8614;48.522;9.206;2023-03-29T15:18:43;17.20;99.90
16995;DHT22;8614;48.522;9.206;2023-03-29T15:21:13;17.20;99.90
16995;DHT22;8614;48.522;9.206;2023-03-29T15:23:46;17.20;99.90
16995;DHT22;8614;48.522;9.206;2023-03-29T15:26:14;17.30;99.90
16995;DHT22;8614;48.522;9.206;2023-03-29T15:28:47;17.30;99.90
16995;DHT22;8614;48.522;9.206;2023-03-29T15:31:16;17.20;99.90
16995;DHT22;8614;48.522;9.206;2023-03-29T15:33:45;17.10;99.90
16995;DHT22;8614;48.522;9.206;2023-03-29T15:36:13;17.00;99.90
16995;DHT22;8614;48.522;9.206;2023-03-29T15:38:42;16.90;99.90
16995;DHT22;8614;48.522;9.206;2023-03-29T15:41:09;17.00;99.90
16995;DHT22;8614;48.522;9.206;2023-03-29T15:43:36;16.90;99.90
16995;DHT22;8614;48.522;9.206;2023-03-29T15:46:02;16.80;99.90
16995;DHT22;8614;48.522;9.206;2023-03-29T15:48:29;16.70;99.90
16995;DHT22;8614;48.522;9.206;2023-03-29T15:50:59;16.60;99.90
16995;DHT22;8614;48.522;9.206;2023-03-29T15:53:27;16.60;99.90
16995;DHT22;8614;48.522;9.206;2023-03-29T15:55:54;16.60;99.90
16995;DHT22;8614;48.522;9.206;2023-03-29T15:58:25;16.50;99.90
16995;DHT22;8614;48.522;9.206;2023-03-29T16:00:55;16.40;99.90
16995;DHT22;8614;48.522;9.206;2023-03-29T16:03:24;16.40;99.90
16995;DHT22;8614;48.522;9.206;2023-03-29T16:05:51;16.40;99.90
16995;DHT22;8614;48.522;9.206;2023-03-29T16:08:22;16.40;99.90
16995;DHT22;8614;48.522;9.206;2023-03-29T16:10:49;16.30;99.90
16995;DHT22;8614;48.522;9.206;2023-03-29T16:13:16;16.30;99.90
16995;DHT22;8614;48.522;9.206;2023-03-29T16:15:43;16.20;99.90
16995;DHT22;8614;48.522;9.206;2023-03-29T16:18:10;16.20;99.90
16995;DHT22;8614;48.522;9.206;2023-03-29T16:20:37;16.10;99.90
16995;DHT22;8614;48.522;9.206;2023-03-29T16:23:04;16.00;99.90
16995;DHT22;8614;48.522;9.206;2023-03-29T16:25:35;16.00;99.90
16995;DHT22;8614;48.522;9.206;2023-03-29T16:28:05;15.90;99.90
16995;DHT22;8614;48.522;9.206;2023-03-29T16:30:33;15.90;99.90
16995;DHT22;8614;48.522;9.206;2023-03-29T16:33:00;15.80;99.90
16995;DHT22;8614;48.522;9.206;2023-03-29T16:35:32;15.80;99.90
16995;DHT22;8614;48.522;9.206;2023-03-29T16:37:59;15.70;99.90
16995;DHT22;8614;48.522;9.206;2023-03-29T16:40:26;15.70;99.90
16995;DHT22;8614;48.522;9.206;2023-03-29T16:42:54;15.80;99.90
16995;DHT22;8614;48.522;9.206;2023-03-29T16:45:21;15.70;99.90
16995;DHT22;8614;48.522;9.206;2023-03-29T16:47:47;15.70;99.90
16995;DHT22;8614;48.522;9.206;2023-03-29T16:50:15;15.70;99.90
16995;DHT22;8614;48.522;9.206;2023-03-29T16:52:43;15.70;99.90
16995;DHT22;8614;48.522;9.206;2023-03-29T16:55:12;15.60;99.90
16995;DHT22;8614;48.522;9.206;2023-03-29T16:57:40;15.50;99.90
16995;DHT22;8614;48.522;9.206;2023-03-29T17:00:10;15.50;99.90
16995;DHT22;8614;48.522;9.206;2023-03-29T17:02:38;15.50;99.90
16995;DHT22;8614;48.522;9.206;2023-03-29T17:05:06;15.40;99.90
16995;DHT22;8614;48.522;9.206;2023-03-29T17:07:33;15.30;99.90
16995;DHT22;8614;48.522;9.206;2023-03-29T17:10:00;15.20;99.90
16995;DHT22;8614;48.522;9.206;2023-03-29T17:12:29;15.10;99.90
16995;DHT22;8614;48.522;9.206;2023-03-29T17:14:56;15.00;99.90
16995;DHT22;8614;48.522;9.206;2023-03-29T17:17:24;15.00;99.90
16995;DHT22;8614;48.522;9.206;2023-03-29T17:19:51;14.90;99.90
16995;DHT22;8614;48.522;9.206;2023-03-29T17:22:18;14.80;99.90
16995;DHT22;8614;48.522;9.206;2023-03-29T17:24:44;14.80;99.90
16995;DHT22;8614;48.522;9.206;2023-03-29T17:27:11;14.70;99.90
16995;DHT22;8614;48.522;9.206;2023-03-29T17:29:38;14.60;99.90
16995;DHT22;8614;48.522;9.206;2023-03-29T17:32:05;14.60;99.90
16995;DHT22;8614;48.522;9.206;2023-03-29T17:34:33;14.50;99.90
16995;DHT22;8614;48.522;9.206;2023-03-29T17:37:00;14.50;99.90
16995;DHT22;8614;48.522;9.206;2023-03-29T17:39:28;14.40;99.90
16995;DHT22;8614;48.522;9.206;2023-03-29T17:41:55;14.40;99.90
16995;DHT22;8614;48.522;9.206;2023-03-29T17:44:22;14.40;99.90
16995;DHT22;8614;48.522;9.206;2023-03-29T17:46:48;14.30;99.90
16995;DHT22;8614;48.522;9.206;2023-03-29T17:49:15;14.30;99.90
16995;DHT22;8614;48.522;9.206;2023-03-29T17:51:44;14.30;99.90
16995;DHT22;8614;48.522;9.206;2023-03-29T17:54:11;14.20;99.90
16995;DHT22;8614;48.522;9.206;2023-03-29T17:56:37;14.10;99.90
16995;DHT22;8614;48.522;9.206;2023-03-29T17:59:04;14.10;99.90
16995;DHT22;8614;48.522;9.206;2023-03-29T18:01:31;14.00;99.90
16995;DHT22;8614;48.522;9.206;2023-03-29T18:03:58;14.00;99.90
16995;DHT22;8614;48.522;9.206;2023-03-29T18:06:25;14.00;99.90
16995;DHT22;8614;48.522;9.206;2023-03-29T18:08:53;13.90;99.90
16995;DHT22;8614;48.522;9.206;2023-03-29T18:11:21;13.90;99.90
16995;DHT22;8614;48.522;9.206;2023-03-29T18:13:49;13.90;99.90
16995;DHT22;8614;48.522;9.206;2023-03-29T18:16:17;13.90;99.90
16995;DHT22;8614;48.522;9.206;2023-03-29T18:18:44;13.90;99.90
16995;DHT22;8614;48.522;9.206;2023-03-29T18:21:12;13.80;99.90
16995;DHT22;8614;48.522;9.206;2023-03-29T18:23:39;13.80;99.90
16995;DHT22;8614;48.522;9.206;2023-03-29T18:26:09;13.70;99.90
16995;DHT22;8614;48.522;9.206;2023-03-29T18:28:37;13.70;99.90
16995;DHT22;8614;48.522;9.206;2023-03-29T18:31:04;13.70;99.90